sensor_id;sensor_type;location;lat;lon;timestamp;P1;durP1;ratioP1;P2;durP2;ratioP2
75456;SDS011;64036;48.266;14.192;2023-12-22T00:01:13;1.30;;;0.90;;
75456;SDS011;64036;48.266;14.192;2023-12-22T00:03:42;1.20;;;0.60;;
75456;SDS011;64036;48.266;14.192;2023-12-22T00:06:08;0.50;;;0.50;;
75456;SDS011;64036;48.266;14.192;2023-12-22T00:08:36;0.80;;;0.80;;
75456;SDS011;64036;48.266;14.192;2023-12-22T00:11:02;0.70;;;0.70;;
75456;SDS011;64036;48.266;14.192;2023-12-22T00:13:29;0.70;;;0.60;;
75456;SDS011;64036;48.266;14.192;2023-12-22T00:15:55;0.80;;;0.70;;
75456;SDS011;64036;48.266;14.192;2023-12-22T00:18:20;0.50;;;0.50;;
75456;SDS011;64036;48.266;14.192;2023-12-22T00:20:46;1.40;;;0.80;;
75456;SDS011;64036;48.266;14.192;2023-12-22T00:23:12;0.60;;;0.60;;
75456;SDS011;64036;48.266;14.192;2023-12-22T00:25:38;2.60;;;0.70;;
75456;SDS011;64036;48.266;14.192;2023-12-22T00:28:03;1.00;;;0.60;;
75456;SDS011;64036;48.266;14.192;2023-12-22T00:30:29;0.80;;;0.70;;
75456;SDS011;64036;48.266;14.192;2023-12-22T00:32:55;2.60;;;0.80;;
75456;SDS011;64036;48.266;14.192;2023-12-22T00:35:21;0.50;;;0.50;;
75456;SDS011;64036;48.266;14.192;2023-12-22T00:37:46;0.60;;;0.60;;
75456;SDS011;64036;48.266;14.192;2023-12-22T00:40:12;0.60;;;0.60;;
75456;SDS011;64036;48.266;14.192;2023-12-22T00:42:38;0.70;;;0.60;;
75456;SDS011;64036;48.266;14.192;2023-12-22T00:45:04;0.60;;;0.60;;
75456;SDS011;64036;48.266;14.192;2023-12-22T00:47:30;1.20;;;0.70;;
75456;SDS011;64036;48.266;14.192;2023-12-22T00:49:56;0.90;;;0.80;;
75456;SDS011;64036;48.266;14.192;2023-12-22T00:52:22;1.40;;;0.80;;
75456;SDS011;64036;48.266;14.192;2023-12-22T00:54:47;2.40;;;0.70;;
75456;SDS011;64036;48.266;14.192;2023-12-22T00:57:13;0.60;;;0.50;;
75456;SDS011;64036;48.266;14.192;2023-12-22T00:59:39;1.50;;;0.60;;
75456;SDS011;64036;48.266;14.192;2023-12-22T01:02:10;3.00;;;1.00;;
75456;SDS011;64036;48.266;14.192;2023-12-22T01:04:36;1.10;;;1.00;;
75456;SDS011;64036;48.266;14.192;2023-12-22T01:07:02;0.70;;;0.70;;
75456;SDS011;64036;48.266;14.192;2023-12-22T01:09:27;1.10;;;0.80;;
75456;SDS011;64036;48.266;14.192;2023-12-22T01:11:53;0.90;;;0.80;;
75456;SDS011;64036;48.266;14.192;2023-12-22T01:14:18;2.90;;;1.10;;
75456;SDS011;64036;48.266;14.192;2023-12-22T01:16:44;2.30;;;1.00;;
75456;SDS011;64036;48.266;14.192;2023-12-22T01:19:10;1.70;;;0.90;;
75456;SDS011;64036;48.266;14.192;2023-12-22T01:21:35;0.70;;;0.60;;
75456;SDS011;64036;48.266;14.192;2023-12-22T01:24:02;0.70;;;0.70;;
75456;SDS011;64036;48.266;14.192;2023-12-22T01:26:27;0.60;;;0.60;;
75456;SDS011;64036;48.266;14.192;2023-12-22T01:28:53;0.70;;;0.70;;
75456;SDS011;64036;48.266;14.192;2023-12-22T01:31:19;1.00;;;0.80;;
75456;SDS011;64036;48.266;14.192;2023-12-22T01:33:45;0.80;;;0.80;;
75456;SDS011;64036;48.266;14.192;2023-12-22T01:36:10;0.90;;;0.60;;
75456;SDS011;64036;48.266;14.192;2023-12-22T01:38:36;0.70;;;0.70;;
75456;SDS011;64036;48.266;14.192;2023-12-22T01:41:02;0.70;;;0.70;;
75456;SDS011;64036;48.266;14.192;2023-12-22T01:43:28;2.40;;;0.80;;
75456;SDS011;64036;48.266;14.192;2023-12-22T01:45:56;1.60;;;0.90;;
75456;SDS011;64036;48.266;14.192;2023-12-22T01:48:23;1.50;;;0.90;;
75456;SDS011;64036;48.266;14.192;2023-12-22T01:50:51;1.20;;;0.70;;
75456;SDS011;64036;48.266;14.192;2023-12-22T01:53:19;2.50;;;0.70;;
75456;SDS011;64036;48.266;14.192;2023-12-22T01:55:47;1.60;;;0.70;;
75456;SDS011;64036;48.266;14.192;2023-12-22T01:58:13;2.40;;;0.90;;
75456;SDS011;64036;48.266;14.192;2023-12-22T02:00:39;0.60;;;0.60;;
75456;SDS011;64036;48.266;14.192;2023-12-22T02:03:06;1.40;;;0.80;;
75456;SDS011;64036;48.266;14.192;2023-12-22T02:05:32;1.30;;;0.70;;
75456;SDS011;64036;48.266;14.192;2023-12-22T02:07:58;0.80;;;0.80;;
75456;SDS011;64036;48.266;14.192;2023-12-22T02:10:24;1.40;;;0.80;;
75456;SDS011;64036;48.266;14.192;2023-12-22T02:12:50;1.00;;;0.80;;
75456;SDS011;64036;48.266;14.192;2023-12-22T02:15:16;2.10;;;0.90;;
75456;SDS011;64036;48.266;14.192;2023-12-22T02:18:05;1.20;;;0.90;;
75456;SDS011;64036;48.266;14.192;2023-12-22T02:20:35;1.10;;;0.90;;
75456;SDS011;64036;48.266;14.192;2023-12-22T02:23:01;1.10;;;0.70;;
75456;SDS011;64036;48.266;14.192;2023-12-22T02:25:27;1.10;;;0.90;;
75456;SDS011;64036;48.266;14.192;2023-12-22T02:27:58;1.00;;;0.80;;
75456;SDS011;64036;48.266;14.192;2023-12-22T02:30:48;1.70;;;1.00;;
75456;SDS011;64036;48.266;14.192;2023-12-22T02:35:49;1.50;;;0.80;;
75456;SDS011;64036;48.266;14.192;2023-12-22T02:38:16;1.80;;;0.80;;
75456;SDS011;64036;48.266;14.192;2023-12-22T02:40:43;2.80;;;0.90;;
75456;SDS011;64036;48.266;14.192;2023-12-22T02:43:09;3.90;;;1.00;;
75456;SDS011;64036;48.266;14.192;2023-12-22T02:45:35;3.00;;;0.90;;
75456;SDS011;64036;48.266;14.192;2023-12-22T02:48:01;1.30;;;1.00;;
75456;SDS011;64036;48.266;14.192;2023-12-22T02:50:27;2.80;;;1.00;;
75456;SDS011;64036;48.266;14.192;2023-12-22T02:52:52;3.20;;;1.00;;
75456;SDS011;64036;48.266;14.192;2023-12-22T02:55:18;4.90;;;1.10;;
75456;SDS011;64036;48.266;14.192;2023-12-22T02:57:43;2.70;;;0.90;;
75456;SDS011;64036;48.266;14.192;2023-12-22T03:00:09;0.90;;;0.80;;
75456;SDS011;64036;48.266;14.192;2023-12-22T03:02:35;2.10;;;0.90;;
75456;SDS011;64036;48.266;14.192;2023-12-22T03:05:01;4.30;;;1.20;;
75456;SDS011;64036;48.266;14.192;2023-12-22T03:07:27;3.20;;;1.00;;
75456;SDS011;64036;48.266;14.192;2023-12-22T03:09:53;3.10;;;1.10;;
75456;SDS011;64036;48.266;14.192;2023-12-22T03:12:18;1.00;;;0.70;;
75456;SDS011;64036;48.266;14.192;2023-12-22T03:14:44;2.40;;;1.00;;
75456;SDS011;64036;48.266;14.192;2023-12-22T03:17:09;5.40;;;1.10;;
75456;SDS011;64036;48.266;14.192;2023-12-22T03:19:36;5.80;;;1.20;;
75456;SDS011;64036;48.266;14.192;2023-12-22T03:22:02;2.90;;;1.10;;
75456;SDS011;64036;48.266;14.192;2023-12-22T03:24:28;2.30;;;1.10;;
75456;SDS011;64036;48.266;14.192;2023-12-22T03:26:54;3.50;;;1.10;;
75456;SDS011;64036;48.266;14.192;2023-12-22T03:29:20;1.50;;;1.00;;
75456;SDS011;64036;48.266;14.192;2023-12-22T03:31:46;1.60;;;0.80;;
75456;SDS011;64036;48.266;14.192;2023-12-22T03:34:12;2.70;;;0.70;;
75456;SDS011;64036;48.266;14.192;2023-12-22T03:36:38;4.60;;;1.20;;
75456;SDS011;64036;48.266;14.192;2023-12-22T03:39:04;3.60;;;1.00;;
75456;SDS011;64036;48.266;14.192;2023-12-22T03:41:30;1.70;;;0.90;;
75456;SDS011;64036;48.266;14.192;2023-12-22T03:43:57;3.00;;;0.90;;
75456;SDS011;64036;48.266;14.192;2023-12-22T03:46:23;4.30;;;0.90;;
75456;SDS011;64036;48.266;14.192;2023-12-22T03:48:50;2.60;;;1.30;;
75456;SDS011;64036;48.266;14.192;2023-12-22T03:51:16;0.80;;;0.70;;
75456;SDS011;64036;48.266;14.192;2023-12-22T03:53:42;1.40;;;0.80;;
75456;SDS011;64036;48.266;14.192;2023-12-22T03:56:08;1.50;;;0.90;;
75456;SDS011;64036;48.266;14.192;2023-12-22T03:58:35;1.20;;;0.80;;
75456;SDS011;64036;48.266;14.192;2023-12-22T04:01:01;3.10;;;1.00;;
75456;SDS011;64036;48.266;14.192;2023-12-22T04:03:26;3.30;;;1.70;;
75456;SDS011;64036;48.266;14.192;2023-12-22T04:05:52;1.70;;;1.00;;
75456;SDS011;64036;48.266;14.192;2023-12-22T04:08:18;3.70;;;0.90;;
75456;SDS011;64036;48.266;14.192;2023-12-22T04:10:48;3.90;;;0.90;;
75456;SDS011;64036;48.266;14.192;2023-12-22T04:13:14;5.00;;;1.10;;
75456;SDS011;64036;48.266;14.192;2023-12-22T04:15:40;2.70;;;1.10;;
75456;SDS011;64036;48.266;14.192;2023-12-22T04:18:06;3.60;;;1.90;;
75456;SDS011;64036;48.266;14.192;2023-12-22T04:20:31;4.20;;;1.00;;
75456;SDS011;64036;48.266;14.192;2023-12-22T04:22:57;3.60;;;1.20;;
75456;SDS011;64036;48.266;14.192;2023-12-22T04:25:23;2.00;;;1.00;;
75456;SDS011;64036;48.266;14.192;2023-12-22T04:27:50;2.50;;;1.00;;
75456;SDS011;64036;48.266;14.192;2023-12-22T04:30:16;5.40;;;1.30;;
75456;SDS011;64036;48.266;14.192;2023-12-22T04:32:42;3.70;;;0.90;;
75456;SDS011;64036;48.266;14.192;2023-12-22T04:35:08;4.90;;;1.30;;
75456;SDS011;64036;48.266;14.192;2023-12-22T04:37:34;5.70;;;1.30;;
75456;SDS011;64036;48.266;14.192;2023-12-22T04:40:00;2.80;;;1.00;;
75456;SDS011;64036;48.266;14.192;2023-12-22T04:42:26;4.50;;;1.40;;
75456;SDS011;64036;48.266;14.192;2023-12-22T04:44:52;3.80;;;1.30;;
75456;SDS011;64036;48.266;14.192;2023-12-22T04:47:18;4.70;;;1.60;;
75456;SDS011;64036;48.266;14.192;2023-12-22T04:49:44;1.90;;;1.00;;
75456;SDS011;64036;48.266;14.192;2023-12-22T04:52:10;4.00;;;1.30;;
75456;SDS011;64036;48.266;14.192;2023-12-22T04:54:36;6.70;;;1.20;;
75456;SDS011;64036;48.266;14.192;2023-12-22T04:57:02;4.80;;;1.10;;
75456;SDS011;64036;48.266;14.192;2023-12-22T04:59:29;4.30;;;1.30;;
75456;SDS011;64036;48.266;14.192;2023-12-22T05:01:54;2.00;;;0.80;;
75456;SDS011;64036;48.266;14.192;2023-12-22T05:04:20;3.90;;;1.30;;
75456;SDS011;64036;48.266;14.192;2023-12-22T05:06:49;4.60;;;1.60;;
75456;SDS011;64036;48.266;14.192;2023-12-22T05:09:15;3.50;;;1.30;;
75456;SDS011;64036;48.266;14.192;2023-12-22T05:11:50;3.20;;;1.30;;
75456;SDS011;64036;48.266;14.192;2023-12-22T05:14:26;3.60;;;1.10;;
75456;SDS011;64036;48.266;14.192;2023-12-22T05:16:52;2.70;;;1.00;;
75456;SDS011;64036;48.266;14.192;2023-12-22T05:19:21;4.40;;;1.10;;
75456;SDS011;64036;48.266;14.192;2023-12-22T05:21:47;1.70;;;1.00;;
75456;SDS011;64036;48.266;14.192;2023-12-22T05:24:14;1.90;;;1.20;;
75456;SDS011;64036;48.266;14.192;2023-12-22T05:26:40;2.30;;;1.00;;
75456;SDS011;64036;48.266;14.192;2023-12-22T05:29:09;2.50;;;1.10;;
75456;SDS011;64036;48.266;14.192;2023-12-22T05:31:35;1.80;;;0.90;;
75456;SDS011;64036;48.266;14.192;2023-12-22T05:34:01;3.70;;;1.40;;
75456;SDS011;64036;48.266;14.192;2023-12-22T05:36:28;3.50;;;1.00;;
75456;SDS011;64036;48.266;14.192;2023-12-22T05:38:53;1.10;;;1.00;;
75456;SDS011;64036;48.266;14.192;2023-12-22T05:41:20;1.80;;;0.90;;
75456;SDS011;64036;48.266;14.192;2023-12-22T05:43:45;3.60;;;1.00;;
75456;SDS011;64036;48.266;14.192;2023-12-22T05:46:17;0.80;;;0.80;;
75456;SDS011;64036;48.266;14.192;2023-12-22T05:48:42;0.70;;;0.70;;
75456;SDS011;64036;48.266;14.192;2023-12-22T05:51:08;1.10;;;0.90;;
75456;SDS011;64036;48.266;14.192;2023-12-22T05:53:41;2.30;;;1.30;;
75456;SDS011;64036;48.266;14.192;2023-12-22T05:56:23;1.40;;;0.90;;
75456;SDS011;64036;48.266;14.192;2023-12-22T05:58:49;0.90;;;0.80;;
75456;SDS011;64036;48.266;14.192;2023-12-22T06:01:19;3.10;;;1.40;;
75456;SDS011;64036;48.266;14.192;2023-12-22T06:03:46;1.20;;;1.10;;
75456;SDS011;64036;48.266;14.192;2023-12-22T06:06:12;1.10;;;0.80;;
75456;SDS011;64036;48.266;14.192;2023-12-22T06:08:38;1.80;;;0.90;;
75456;SDS011;64036;48.266;14.192;2023-12-22T06:11:04;2.00;;;0.70;;
75456;SDS011;64036;48.266;14.192;2023-12-22T06:13:30;1.00;;;0.90;;
75456;SDS011;64036;48.266;14.192;2023-12-22T06:15:59;1.40;;;1.00;;
75456;SDS011;64036;48.266;14.192;2023-12-22T06:18:27;1.90;;;0.90;;
75456;SDS011;64036;48.266;14.192;2023-12-22T06:20:55;1.00;;;0.80;;
75456;SDS011;64036;48.266;14.192;2023-12-22T06:23:23;0.80;;;0.80;;
75456;SDS011;64036;48.266;14.192;2023-12-22T06:25:51;0.70;;;0.70;;
75456;SDS011;64036;48.266;14.192;2023-12-22T06:28:17;1.50;;;1.10;;
75456;SDS011;64036;48.266;14.192;2023-12-22T06:30:45;1.90;;;0.90;;
75456;SDS011;64036;48.266;14.192;2023-12-22T06:33:12;1.30;;;0.80;;
75456;SDS011;64036;48.266;14.192;2023-12-22T06:35:38;1.40;;;0.90;;
75456;SDS011;64036;48.266;14.192;2023-12-22T06:38:07;0.80;;;0.80;;
75456;SDS011;64036;48.266;14.192;2023-12-22T06:40:34;0.80;;;0.80;;
75456;SDS011;64036;48.266;14.192;2023-12-22T06:43:03;1.30;;;0.90;;
75456;SDS011;64036;48.266;14.192;2023-12-22T06:45:30;1.00;;;0.90;;
75456;SDS011;64036;48.266;14.192;2023-12-22T06:47:56;0.70;;;0.60;;
75456;SDS011;64036;48.266;14.192;2023-12-22T06:50:22;4.00;;;1.10;;
75456;SDS011;64036;48.266;14.192;2023-12-22T06:52:48;1.50;;;0.60;;
75456;SDS011;64036;48.266;14.192;2023-12-22T06:55:17;0.60;;;0.60;;
75456;SDS011;64036;48.266;14.192;2023-12-22T06:57:45;0.90;;;0.80;;
75456;SDS011;64036;48.266;14.192;2023-12-22T07:00:16;2.20;;;0.70;;
75456;SDS011;64036;48.266;14.192;2023-12-22T07:07:50;2.00;;;0.50;;
75456;SDS011;64036;48.266;14.192;2023-12-22T07:10:16;3.10;;;0.80;;
75456;SDS011;64036;48.266;14.192;2023-12-22T07:12:45;0.70;;;0.70;;
75456;SDS011;64036;48.266;14.192;2023-12-22T07:15:10;0.80;;;0.60;;
75456;SDS011;64036;48.266;14.192;2023-12-22T07:17:36;0.90;;;0.60;;
75456;SDS011;64036;48.266;14.192;2023-12-22T07:20:11;1.50;;;0.70;;
75456;SDS011;64036;48.266;14.192;2023-12-22T07:22:36;0.90;;;0.80;;
75456;SDS011;64036;48.266;14.192;2023-12-22T07:25:05;0.90;;;0.80;;
75456;SDS011;64036;48.266;14.192;2023-12-22T07:27:32;1.10;;;1.00;;
75456;SDS011;64036;48.266;14.192;2023-12-22T07:30:01;2.20;;;0.90;;
75456;SDS011;64036;48.266;14.192;2023-12-22T07:32:26;0.70;;;0.70;;
75456;SDS011;64036;48.266;14.192;2023-12-22T07:34:52;0.70;;;0.70;;
75456;SDS011;64036;48.266;14.192;2023-12-22T07:37:18;0.70;;;0.70;;
75456;SDS011;64036;48.266;14.192;2023-12-22T07:39:43;0.80;;;0.70;;
75456;SDS011;64036;48.266;14.192;2023-12-22T07:42:10;1.00;;;0.70;;
75456;SDS011;64036;48.266;14.192;2023-12-22T07:44:36;0.90;;;0.80;;
75456;SDS011;64036;48.266;14.192;2023-12-22T07:47:02;0.90;;;0.90;;
75456;SDS011;64036;48.266;14.192;2023-12-22T07:49:28;3.40;;;1.20;;
75456;SDS011;64036;48.266;14.192;2023-12-22T07:51:53;1.10;;;1.00;;
75456;SDS011;64036;48.266;14.192;2023-12-22T07:54:19;1.90;;;1.30;;
75456;SDS011;64036;48.266;14.192;2023-12-22T07:56:45;1.80;;;0.90;;
75456;SDS011;64036;48.266;14.192;2023-12-22T07:59:10;4.10;;;2.20;;
75456;SDS011;64036;48.266;14.192;2023-12-22T08:01:36;1.20;;;1.00;;
75456;SDS011;64036;48.266;14.192;2023-12-22T08:04:02;2.40;;;1.20;;
75456;SDS011;64036;48.266;14.192;2023-12-22T08:06:28;1.80;;;1.60;;
75456;SDS011;64036;48.266;14.192;2023-12-22T08:08:53;2.00;;;1.50;;
75456;SDS011;64036;48.266;14.192;2023-12-22T08:11:20;2.50;;;1.20;;
75456;SDS011;64036;48.266;14.192;2023-12-22T08:13:47;2.10;;;1.50;;
75456;SDS011;64036;48.266;14.192;2023-12-22T08:16:13;3.00;;;1.50;;
75456;SDS011;64036;48.266;14.192;2023-12-22T08:18:38;3.10;;;1.80;;
75456;SDS011;64036;48.266;14.192;2023-12-22T08:21:04;2.70;;;1.60;;
75456;SDS011;64036;48.266;14.192;2023-12-22T08:23:31;3.00;;;2.10;;
75456;SDS011;64036;48.266;14.192;2023-12-22T08:25:57;1.60;;;1.10;;
75456;SDS011;64036;48.266;14.192;2023-12-22T08:28:23;1.30;;;1.10;;
75456;SDS011;64036;48.266;14.192;2023-12-22T08:30:49;2.60;;;1.60;;
75456;SDS011;64036;48.266;14.192;2023-12-22T08:33:15;4.50;;;2.80;;
75456;SDS011;64036;48.266;14.192;2023-12-22T08:35:41;4.20;;;1.90;;
75456;SDS011;64036;48.266;14.192;2023-12-22T08:38:07;4.30;;;2.50;;
75456;SDS011;64036;48.266;14.192;2023-12-22T08:40:33;3.00;;;1.90;;
75456;SDS011;64036;48.266;14.192;2023-12-22T08:42:59;4.40;;;2.10;;
75456;SDS011;64036;48.266;14.192;2023-12-22T08:45:26;4.90;;;2.70;;
75456;SDS011;64036;48.266;14.192;2023-12-22T08:47:54;1.60;;;1.50;;
75456;SDS011;64036;48.266;14.192;2023-12-22T08:50:21;4.50;;;1.80;;
75456;SDS011;64036;48.266;14.192;2023-12-22T08:52:47;2.10;;;1.10;;
75456;SDS011;64036;48.266;14.192;2023-12-22T08:55:13;4.30;;;2.40;;
75456;SDS011;64036;48.266;14.192;2023-12-22T08:57:39;2.00;;;1.40;;
75456;SDS011;64036;48.266;14.192;2023-12-22T09:00:06;3.10;;;2.00;;
75456;SDS011;64036;48.266;14.192;2023-12-22T09:02:32;2.30;;;1.50;;
75456;SDS011;64036;48.266;14.192;2023-12-22T09:04:57;2.20;;;1.00;;
75456;SDS011;64036;48.266;14.192;2023-12-22T09:07:23;1.50;;;1.10;;
75456;SDS011;64036;48.266;14.192;2023-12-22T09:09:49;1.60;;;1.00;;
75456;SDS011;64036;48.266;14.192;2023-12-22T09:12:15;2.20;;;1.30;;
75456;SDS011;64036;48.266;14.192;2023-12-22T09:14:42;1.10;;;0.80;;
75456;SDS011;64036;48.266;14.192;2023-12-22T09:17:07;0.90;;;0.70;;
75456;SDS011;64036;48.266;14.192;2023-12-22T09:19:33;1.10;;;1.00;;
75456;SDS011;64036;48.266;14.192;2023-12-22T09:21:59;2.10;;;1.00;;
75456;SDS011;64036;48.266;14.192;2023-12-22T09:24:26;1.60;;;0.70;;
75456;SDS011;64036;48.266;14.192;2023-12-22T09:26:52;1.40;;;1.00;;
75456;SDS011;64036;48.266;14.192;2023-12-22T09:29:17;2.30;;;1.10;;
75456;SDS011;64036;48.266;14.192;2023-12-22T09:31:43;2.00;;;1.00;;
75456;SDS011;64036;48.266;14.192;2023-12-22T09:34:09;1.90;;;1.10;;
75456;SDS011;64036;48.266;14.192;2023-12-22T09:36:35;1.10;;;1.00;;
75456;SDS011;64036;48.266;14.192;2023-12-22T09:39:01;2.40;;;1.00;;
75456;SDS011;64036;48.266;14.192;2023-12-22T09:41:26;2.30;;;1.20;;
75456;SDS011;64036;48.266;14.192;2023-12-22T09:43:55;3.70;;;1.20;;
75456;SDS011;64036;48.266;14.192;2023-12-22T09:46:22;1.30;;;1.00;;
75456;SDS011;64036;48.266;14.192;2023-12-22T09:48:51;1.90;;;1.10;;
75456;SDS011;64036;48.266;14.192;2023-12-22T09:51:18;2.90;;;1.20;;
75456;SDS011;64036;48.266;14.192;2023-12-22T09:53:45;3.80;;;1.50;;
75456;SDS011;64036;48.266;14.192;2023-12-22T09:56:11;3.40;;;1.50;;
75456;SDS011;64036;48.266;14.192;2023-12-22T09:58:37;2.90;;;1.30;;
75456;SDS011;64036;48.266;14.192;2023-12-22T10:01:04;3.60;;;1.50;;
75456;SDS011;64036;48.266;14.192;2023-12-22T10:03:33;1.90;;;1.20;;
75456;SDS011;64036;48.266;14.192;2023-12-22T10:05:59;1.20;;;1.10;;
75456;SDS011;64036;48.266;14.192;2023-12-22T10:08:26;2.50;;;1.30;;
75456;SDS011;64036;48.266;14.192;2023-12-22T10:10:53;2.20;;;1.40;;
75456;SDS011;64036;48.266;14.192;2023-12-22T10:13:19;1.60;;;1.10;;
75456;SDS011;64036;48.266;14.192;2023-12-22T10:15:45;1.30;;;1.20;;
75456;SDS011;64036;48.266;14.192;2023-12-22T10:18:12;1.70;;;1.20;;
75456;SDS011;64036;48.266;14.192;2023-12-22T10:20:39;1.50;;;1.00;;
75456;SDS011;64036;48.266;14.192;2023-12-22T10:23:05;2.40;;;1.00;;
75456;SDS011;64036;48.266;14.192;2023-12-22T10:25:31;1.30;;;1.20;;
75456;SDS011;64036;48.266;14.192;2023-12-22T10:27:58;3.50;;;1.30;;
75456;SDS011;64036;48.266;14.192;2023-12-22T10:30:24;4.30;;;1.80;;
75456;SDS011;64036;48.266;14.192;2023-12-22T10:32:52;1.80;;;1.30;;
75456;SDS011;64036;48.266;14.192;2023-12-22T10:35:22;4.90;;;1.50;;
75456;SDS011;64036;48.266;14.192;2023-12-22T10:37:48;5.80;;;1.70;;
75456;SDS011;64036;48.266;14.192;2023-12-22T10:40:17;3.10;;;1.50;;
75456;SDS011;64036;48.266;14.192;2023-12-22T10:42:43;2.10;;;1.40;;
75456;SDS011;64036;48.266;14.192;2023-12-22T10:45:09;2.70;;;1.60;;
75456;SDS011;64036;48.266;14.192;2023-12-22T10:47:35;3.70;;;1.90;;
75456;SDS011;64036;48.266;14.192;2023-12-22T10:50:05;1.50;;;1.20;;
75456;SDS011;64036;48.266;14.192;2023-12-22T10:52:33;4.40;;;1.60;;
75456;SDS011;64036;48.266;14.192;2023-12-22T10:54:59;2.50;;;1.30;;
75456;SDS011;64036;48.266;14.192;2023-12-22T10:57:31;2.10;;;1.20;;
75456;SDS011;64036;48.266;14.192;2023-12-22T11:00:05;3.10;;;1.20;;
75456;SDS011;64036;48.266;14.192;2023-12-22T11:02:35;4.10;;;1.70;;
75456;SDS011;64036;48.266;14.192;2023-12-22T11:05:10;4.20;;;2.20;;
75456;SDS011;64036;48.266;14.192;2023-12-22T11:07:38;3.20;;;1.90;;
75456;SDS011;64036;48.266;14.192;2023-12-22T11:10:07;4.50;;;1.60;;
75456;SDS011;64036;48.266;14.192;2023-12-22T11:12:38;1.90;;;1.20;;
75456;SDS011;64036;48.266;14.192;2023-12-22T11:15:04;5.10;;;1.90;;
75456;SDS011;64036;48.266;14.192;2023-12-22T11:17:32;1.70;;;1.20;;
75456;SDS011;64036;48.266;14.192;2023-12-22T11:20:02;4.90;;;1.90;;
75456;SDS011;64036;48.266;14.192;2023-12-22T11:22:31;2.50;;;1.50;;
75456;SDS011;64036;48.266;14.192;2023-12-22T11:24:58;7.30;;;2.80;;
75456;SDS011;64036;48.266;14.192;2023-12-22T11:27:25;6.60;;;2.10;;
75456;SDS011;64036;48.266;14.192;2023-12-22T11:29:52;6.20;;;2.50;;
75456;SDS011;64036;48.266;14.192;2023-12-22T11:32:19;5.50;;;2.20;;
75456;SDS011;64036;48.266;14.192;2023-12-22T11:34:46;11.00;;;4.00;;
75456;SDS011;64036;48.266;14.192;2023-12-22T11:37:14;8.30;;;3.70;;
75456;SDS011;64036;48.266;14.192;2023-12-22T11:39:44;7.90;;;3.20;;
75456;SDS011;64036;48.266;14.192;2023-12-22T11:42:17;8.30;;;2.60;;
75456;SDS011;64036;48.266;14.192;2023-12-22T11:44:52;3.90;;;1.80;;
75456;SDS011;64036;48.266;14.192;2023-12-22T11:47:22;3.20;;;1.70;;
75456;SDS011;64036;48.266;14.192;2023-12-22T11:49:49;1.90;;;1.10;;
75456;SDS011;64036;48.266;14.192;2023-12-22T11:52:18;2.40;;;1.30;;
75456;SDS011;64036;48.266;14.192;2023-12-22T11:54:52;3.60;;;1.70;;
75456;SDS011;64036;48.266;14.192;2023-12-22T12:00:02;3.00;;;1.20;;
75456;SDS011;64036;48.266;14.192;2023-12-22T12:02:34;2.70;;;1.10;;
75456;SDS011;64036;48.266;14.192;2023-12-22T12:05:04;1.90;;;1.30;;
75456;SDS011;64036;48.266;14.192;2023-12-22T12:10:35;3.70;;;1.30;;
75456;SDS011;64036;48.266;14.192;2023-12-22T12:13:12;2.80;;;1.20;;
75456;SDS011;64036;48.266;14.192;2023-12-22T12:15:41;2.80;;;1.30;;
75456;SDS011;64036;48.266;14.192;2023-12-22T12:18:08;1.90;;;1.10;;
75456;SDS011;64036;48.266;14.192;2023-12-22T12:20:34;1.30;;;0.90;;
75456;SDS011;64036;48.266;14.192;2023-12-22T12:23:01;1.50;;;1.10;;
75456;SDS011;64036;48.266;14.192;2023-12-22T12:25:28;2.70;;;0.80;;
75456;SDS011;64036;48.266;14.192;2023-12-22T12:28:05;0.70;;;0.70;;
75456;SDS011;64036;48.266;14.192;2023-12-22T12:30:32;1.60;;;0.70;;
75456;SDS011;64036;48.266;14.192;2023-12-22T12:33:05;0.70;;;0.70;;
75456;SDS011;64036;48.266;14.192;2023-12-22T12:35:33;1.70;;;0.90;;
75456;SDS011;64036;48.266;14.192;2023-12-22T12:38:05;0.80;;;0.80;;
75456;SDS011;64036;48.266;14.192;2023-12-22T12:40:32;1.30;;;0.90;;
75456;SDS011;64036;48.266;14.192;2023-12-22T12:43:01;0.90;;;0.80;;
75456;SDS011;64036;48.266;14.192;2023-12-22T12:45:28;1.50;;;1.00;;
75456;SDS011;64036;48.266;14.192;2023-12-22T12:48:05;1.30;;;0.90;;
75456;SDS011;64036;48.266;14.192;2023-12-22T12:50:31;0.70;;;0.70;;
75456;SDS011;64036;48.266;14.192;2023-12-22T12:52:57;1.00;;;0.90;;
75456;SDS011;64036;48.266;14.192;2023-12-22T12:55:24;1.00;;;0.90;;
75456;SDS011;64036;48.266;14.192;2023-12-22T12:57:52;0.80;;;0.70;;
75456;SDS011;64036;48.266;14.192;2023-12-22T13:00:29;0.80;;;0.80;;
75456;SDS011;64036;48.266;14.192;2023-12-22T13:03:03;1.30;;;1.00;;
75456;SDS011;64036;48.266;14.192;2023-12-22T13:05:33;1.10;;;1.00;;
75456;SDS011;64036;48.266;14.192;2023-12-22T13:08:09;0.90;;;0.80;;
75456;SDS011;64036;48.266;14.192;2023-12-22T13:10:36;0.80;;;0.80;;
75456;SDS011;64036;48.266;14.192;2023-12-22T13:13:03;0.80;;;0.80;;
75456;SDS011;64036;48.266;14.192;2023-12-22T13:15:29;1.70;;;0.90;;
75456;SDS011;64036;48.266;14.192;2023-12-22T13:17:55;0.90;;;0.80;;
75456;SDS011;64036;48.266;14.192;2023-12-22T13:20:22;0.80;;;0.70;;
75456;SDS011;64036;48.266;14.192;2023-12-22T13:22:48;1.10;;;0.80;;
75456;SDS011;64036;48.266;14.192;2023-12-22T13:25:14;1.20;;;0.90;;
75456;SDS011;64036;48.266;14.192;2023-12-22T13:27:47;2.10;;;1.00;;
75456;SDS011;64036;48.266;14.192;2023-12-22T13:30:35;2.00;;;0.90;;
75456;SDS011;64036;48.266;14.192;2023-12-22T13:33:04;0.90;;;0.90;;
75456;SDS011;64036;48.266;14.192;2023-12-22T13:35:29;0.60;;;0.60;;
75456;SDS011;64036;48.266;14.192;2023-12-22T13:37:56;1.40;;;0.70;;
75456;SDS011;64036;48.266;14.192;2023-12-22T13:40:22;1.10;;;0.80;;
75456;SDS011;64036;48.266;14.192;2023-12-22T13:42:56;0.90;;;0.90;;
75456;SDS011;64036;48.266;14.192;2023-12-22T13:45:23;0.80;;;0.80;;
75456;SDS011;64036;48.266;14.192;2023-12-22T13:47:50;1.00;;;0.90;;
75456;SDS011;64036;48.266;14.192;2023-12-22T13:50:16;0.80;;;0.80;;
75456;SDS011;64036;48.266;14.192;2023-12-22T13:52:44;0.60;;;0.60;;
75456;SDS011;64036;48.266;14.192;2023-12-22T13:55:14;0.90;;;0.70;;
75456;SDS011;64036;48.266;14.192;2023-12-22T13:57:44;0.90;;;0.70;;
75456;SDS011;64036;48.266;14.192;2023-12-22T14:02:48;0.80;;;0.80;;
75456;SDS011;64036;48.266;14.192;2023-12-22T14:05:17;1.40;;;0.90;;
75456;SDS011;64036;48.266;14.192;2023-12-22T14:07:43;0.90;;;0.80;;
75456;SDS011;64036;48.266;14.192;2023-12-22T14:10:10;1.20;;;0.90;;
75456;SDS011;64036;48.266;14.192;2023-12-22T14:12:37;0.80;;;0.80;;
75456;SDS011;64036;48.266;14.192;2023-12-22T14:15:10;2.10;;;1.10;;
75456;SDS011;64036;48.266;14.192;2023-12-22T14:17:37;1.70;;;1.00;;
75456;SDS011;64036;48.266;14.192;2023-12-22T14:20:03;1.60;;;1.10;;
75456;SDS011;64036;48.266;14.192;2023-12-22T14:25:03;1.20;;;0.90;;
75456;SDS011;64036;48.266;14.192;2023-12-22T14:27:29;1.30;;;1.20;;
75456;SDS011;64036;48.266;14.192;2023-12-22T14:29:55;2.20;;;1.40;;
75456;SDS011;64036;48.266;14.192;2023-12-22T14:32:21;2.20;;;1.30;;
75456;SDS011;64036;48.266;14.192;2023-12-22T14:34:48;2.30;;;1.30;;
75456;SDS011;64036;48.266;14.192;2023-12-22T14:37:14;2.00;;;1.00;;
75456;SDS011;64036;48.266;14.192;2023-12-22T14:39:42;1.40;;;1.00;;
75456;SDS011;64036;48.266;14.192;2023-12-22T14:42:08;0.90;;;0.90;;
75456;SDS011;64036;48.266;14.192;2023-12-22T14:44:34;1.20;;;1.10;;
75456;SDS011;64036;48.266;14.192;2023-12-22T14:47:00;2.10;;;1.30;;
75456;SDS011;64036;48.266;14.192;2023-12-22T14:49:26;1.70;;;1.30;;
75456;SDS011;64036;48.266;14.192;2023-12-22T14:51:52;2.00;;;1.40;;